Time;durP1;ratioP1;P1;durP2;ratioP2;P2;SDS_P1;SDS_P2;PMS_P1;PMS_P2;Temp;Humidity;BMP_temperature;BMP_pressure;BME280_temperature;BME280_humidity;BME280_pressure;Samples;Min_cycle;Max_cycle;Signal;HPM_P1;HPM_P2
2023/07/10 00:00:24;;;;;;;7.80;4.57;;;26.90;84.10;;;;;;5049748;28;20215;-74
2023/07/10 00:02:51;;;;;;;7.17;4.87;;;26.90;84.40;;;;;;5057677;28;20219;-73
2023/07/10 00:05:19;;;;;;;5.23;4.73;;;26.90;85.00;;;;;;5037281;28;20455;-73
2023/07/10 00:07:45;;;;;;;5.10;4.60;;;26.80;85.10;;;;;;5063601;28;20217;-73
2023/07/10 00:10:14;;;;;;;5.43;4.93;;;26.70;85.60;;;;;;5032482;28;20220;-73
2023/07/10 00:12:41;;;;;;;5.37;4.87;;;26.70;85.40;;;;;;5032081;28;21041;-73
2023/07/10 00:15:20;;;;;;;6.93;5.03;;;26.70;85.30;;;;;;5041041;28;20542;-72
2023/07/10 00:17:47;;;;;;;8.57;5.33;;;26.60;86.00;;;;;;5039002;28;20450;-73
2023/07/10 00:20:17;;;;;;;4.63;4.23;;;26.60;86.40;;;;;;5042046;28;20467;-73
2023/07/10 00:22:42;;;;;;;5.57;4.97;;;26.40;86.90;;;;;;5049786;28;20520;-73
2023/07/10 00:25:09;;;;;;;7.20;4.63;;;26.50;87.00;;;;;;5041481;28;20298;-73
2023/07/10 00:27:35;;;;;;;5.03;4.63;;;26.50;87.00;;;;;;5048538;28;20208;-73
2023/07/10 00:30:02;;;;;;;5.17;4.67;;;26.40;87.40;;;;;;5032723;28;20504;-73
2023/07/10 00:32:28;;;;;;;7.37;5.30;;;26.40;87.40;;;;;;5043299;28;21164;-73
2023/07/10 00:34:54;;;;;;;8.10;5.10;;;26.30;88.10;;;;;;5035053;28;20463;-73
2023/07/10 00:37:19;;;;;;;5.87;4.67;;;26.30;88.40;;;;;;5035238;28;20231;-73
2023/07/10 00:39:45;;;;;;;7.43;5.33;;;26.20;89.10;;;;;;5045554;28;20211;-73
2023/07/10 00:42:14;;;;;;;6.53;5.30;;;26.20;89.30;;;;;;5042766;28;20230;-73
2023/07/10 00:44:44;;;;;;;4.97;4.47;;;26.20;90.00;;;;;;5030687;28;20216;-73
2023/07/10 00:47:15;;;;;;;6.40;5.70;;;26.10;89.80;;;;;;5034277;28;20450;-72
2023/07/10 00:49:45;;;;;;;5.37;4.87;;;26.00;90.10;;;;;;5048873;28;20472;-73
2023/07/10 00:52:25;;;;;;;6.07;4.60;;;26.10;90.10;;;;;;5032486;28;20836;-72
2023/07/10 00:54:57;;;;;;;5.83;5.37;;;26.10;90.00;;;;;;5037547;28;20497;-73
2023/07/10 00:57:33;;;;;;;5.40;4.90;;;26.10;90.30;;;;;;5040744;28;20453;-72
2023/07/10 01:00:00;;;;;;;5.40;4.90;;;26.10;90.30;;;;;;5041037;28;20465;-73
2023/07/10 01:02:26;;;;;;;5.70;5.20;;;26.10;90.10;;;;;;5029211;28;20462;-72
2023/07/10 01:05:00;;;;;;;5.00;4.60;;;26.00;90.60;;;;;;5036588;28;20446;-74
2023/07/10 01:07:29;;;;;;;6.47;5.30;;;25.90;91.10;;;;;;5022369;28;20820;-73
2023/07/10 01:10:03;;;;;;;5.20;4.70;;;25.90;90.80;;;;;;5039876;28;20462;-73
2023/07/10 01:12:30;;;;;;;5.40;4.90;;;26.00;90.90;;;;;;5018128;28;20451;-73
2023/07/10 01:14:56;;;;;;;5.30;4.83;;;26.00;90.90;;;;;;5068234;28;20463;-73
2023/07/10 01:17:23;;;;;;;6.17;5.60;;;25.90;91.00;;;;;;5037401;28;20451;-72
2023/07/10 01:19:51;;;;;;;7.00;5.20;;;25.90;91.10;;;;;;5047451;28;20845;-73
2023/07/10 01:22:17;;;;;;;5.30;4.80;;;25.90;91.10;;;;;;5037445;28;20459;-73
2023/07/10 01:24:43;;;;;;;6.17;5.20;;;26.00;91.00;;;;;;5042660;28;20464;-73
2023/07/10 01:27:12;;;;;;;8.63;5.50;;;26.00;91.10;;;;;;5042866;28;20614;-73
2023/07/10 01:29:43;;;;;;;6.83;6.10;;;26.00;91.40;;;;;;5020410;28;20629;-73
2023/07/10 01:32:12;;;;;;;5.53;5.00;;;25.90;91.60;;;;;;5033847;28;20526;-73
2023/07/10 01:34:50;;;;;;;5.50;5.10;;;25.90;91.80;;;;;;5035246;28;20466;-73
2023/07/10 01:37:17;;;;;;;7.10;5.53;;;25.90;91.50;;;;;;5043412;28;20456;-73
2023/07/10 01:39:46;;;;;;;7.00;5.53;;;26.00;92.10;;;;;;5042369;28;20541;-73
2023/07/10 01:42:12;;;;;;;6.00;5.40;;;25.90;92.00;;;;;;5036383;28;20256;-73
2023/07/10 01:44:40;;;;;;;7.03;5.97;;;25.90;92.10;;;;;;5040816;28;21164;-73
2023/07/10 01:47:08;;;;;;;6.03;5.37;;;25.90;92.80;;;;;;5028281;28;20452;-73
2023/07/10 01:49:41;;;;;;;7.07;6.00;;;25.80;93.10;;;;;;5030480;28;20459;-73
2023/07/10 01:52:10;;;;;;;6.90;6.13;;;25.70;93.40;;;;;;5039354;28;20463;-73
2023/07/10 01:54:37;;;;;;;7.03;6.33;;;25.60;93.80;;;;;;5027516;28;20463;-73
2023/07/10 01:57:04;;;;;;;6.87;6.27;;;25.60;94.30;;;;;;5032193;28;21027;-73
2023/07/10 01:59:29;;;;;;;6.90;6.30;;;25.50;94.60;;;;;;5019335;28;20463;-72
2023/07/10 02:01:57;;;;;;;6.63;6.00;;;25.40;95.50;;;;;;5033416;28;20227;-73
2023/07/10 02:04:23;;;;;;;6.53;5.93;;;25.50;95.00;;;;;;5034224;28;20303;-72
2023/07/10 02:06:49;;;;;;;6.53;5.93;;;25.60;94.90;;;;;;5052385;28;20538;-73
2023/07/10 02:09:15;;;;;;;9.23;6.37;;;25.60;94.50;;;;;;5027943;28;21055;-73
2023/07/10 02:11:41;;;;;;;7.90;6.10;;;25.70;94.60;;;;;;5062719;28;20251;-73
2023/07/10 02:14:08;;;;;;;5.67;5.17;;;25.80;94.20;;;;;;5043057;28;20216;-73
2023/07/10 02:16:35;;;;;;;6.43;5.80;;;25.80;94.30;;;;;;5056173;28;20228;-73
2023/07/10 02:19:01;;;;;;;8.73;6.13;;;25.80;94.40;;;;;;5037984;28;20585;-73
2023/07/10 02:21:27;;;;;;;7.90;6.43;;;25.70;94.50;;;;;;5029958;28;20470;-73
2023/07/10 02:23:52;;;;;;;8.87;6.50;;;25.60;94.90;;;;;;5068796;28;21002;-73
2023/07/10 02:26:18;;;;;;;10.80;6.63;;;25.60;95.60;;;;;;5036268;28;20224;-73
2023/07/10 02:28:44;;;;;;;7.87;7.13;;;25.40;96.10;;;;;;5040759;28;20764;-73
2023/07/10 02:31:11;;;;;;;7.00;6.30;;;25.20;97.10;;;;;;5040966;28;20243;-72
2023/07/10 02:33:36;;;;;;;8.43;6.43;;;25.20;97.60;;;;;;5034413;28;20546;-73
2023/07/10 02:36:03;;;;;;;7.50;6.90;;;25.10;98.00;;;;;;5021603;28;21193;-73
2023/07/10 02:38:29;;;;;;;7.97;6.63;;;25.00;98.50;;;;;;5042427;28;20249;-72
2023/07/10 02:40:55;;;;;;;8.53;7.73;;;25.00;98.70;;;;;;5030029;28;20464;-73
2023/07/10 02:43:21;;;;;;;10.00;8.77;;;25.00;99.00;;;;;;5042110;28;20270;-73
2023/07/10 02:45:47;;;;;;;14.63;7.43;;;25.00;98.90;;;;;;5026971;28;20462;-72
2023/07/10 02:48:13;;;;;;;8.90;8.03;;;25.00;99.30;;;;;;5045428;28;20211;-73
2023/07/10 02:50:38;;;;;;;14.33;8.60;;;24.90;99.60;;;;;;5027106;28;20218;-73
2023/07/10 02:53:04;;;;;;;10.07;9.07;;;25.10;99.40;;;;;;5039525;28;20201;-73
2023/07/10 02:55:30;;;;;;;10.70;9.63;;;25.10;99.60;;;;;;5038420;28;20327;-72
2023/07/10 02:57:56;;;;;;;10.83;9.70;;;25.10;99.80;;;;;;5030237;28;20205;-74
2023/07/10 03:00:22;;;;;;;11.23;10.03;;;25.10;99.90;;;;;;5036592;28;20212;-73
2023/07/10 03:02:47;;;;;;;11.73;10.10;;;25.00;99.90;;;;;;5045917;28;20227;-72
2023/07/10 03:05:13;;;;;;;12.33;11.13;;;25.00;99.90;;;;;;5032167;28;20319;-73
2023/07/10 03:07:38;;;;;;;14.50;12.37;;;25.10;99.90;;;;;;5031535;28;20232;-73
2023/07/10 03:10:06;;;;;;;12.57;11.27;;;25.10;99.90;;;;;;5029833;28;20216;-73
2023/07/10 03:12:31;;;;;;;12.67;10.77;;;25.10;99.90;;;;;;5038119;28;20218;-72
2023/07/10 03:14:57;;;;;;;14.37;12.87;;;25.10;99.90;;;;;;5038126;28;20920;-73
2023/07/10 03:17:23;;;;;;;16.90;14.00;;;25.10;99.90;;;;;;5037056;28;20227;-73
2023/07/10 03:19:50;;;;;;;16.97;12.30;;;25.10;99.90;;;;;;5036913;28;20209;-73
2023/07/10 03:22:16;;;;;;;15.00;13.37;;;25.20;99.90;;;;;;5041590;28;20606;-71
2023/07/10 03:24:42;;;;;;;14.17;12.40;;;25.30;99.90;;;;;;5061302;28;20494;-73
2023/07/10 03:27:08;;;;;;;15.20;12.60;;;25.30;99.90;;;;;;5034001;28;20461;-73
2023/07/10 03:29:36;;;;;;;15.00;13.20;;;25.10;99.90;;;;;;5036067;28;20216;-72
2023/07/10 03:32:02;;;;;;;16.10;13.23;;;25.10;99.90;;;;;;5051235;28;20224;-73
2023/07/10 03:34:28;;;;;;;17.30;13.93;;;25.20;99.90;;;;;;5036302;28;20989;-73
2023/07/10 03:36:53;;;;;;;13.53;12.13;;;25.30;99.90;;;;;;5050372;28;20581;-73
2023/07/10 03:39:19;;;;;;;14.03;12.63;;;25.40;99.90;;;;;;5049864;28;20222;-73
2023/07/10 03:41:45;;;;;;;13.30;11.97;;;25.50;99.90;;;;;;5040104;28;20338;-73
2023/07/10 03:44:11;;;;;;;14.80;12.57;;;25.40;99.90;;;;;;5038689;28;20250;-73
2023/07/10 03:46:37;;;;;;;17.13;13.70;;;25.40;99.90;;;;;;5043158;28;20255;-72
2023/07/10 03:49:03;;;;;;;15.77;14.10;;;25.20;99.90;;;;;;5029811;28;20226;-71
2023/07/10 03:51:30;;;;;;;13.00;11.47;;;25.20;99.90;;;;;;5045066;28;20216;-73
2023/07/10 03:53:55;;;;;;;13.57;11.93;;;25.20;99.90;;;;;;5040386;28;20463;-73
2023/07/10 03:56:21;;;;;;;17.80;13.60;;;25.20;99.90;;;;;;5038626;28;20255;-73
2023/07/10 03:58:47;;;;;;;17.30;12.97;;;25.20;99.90;;;;;;5057476;28;20215;-73
2023/07/10 04:01:14;;;;;;;13.60;11.27;;;25.10;99.90;;;;;;5033885;28;20232;-74
2023/07/10 04:03:40;;;;;;;14.20;12.53;;;25.00;99.90;;;;;;5019133;28;20620;-73
2023/07/10 04:06:08;;;;;;;16.47;13.97;;;25.00;99.90;;;;;;5043174;28;20477;-73
2023/07/10 04:08:40;;;;;;;14.47;11.83;;;24.80;99.90;;;;;;5032278;28;20298;-72
2023/07/10 04:11:14;;;;;;;11.47;10.40;;;24.90;99.90;;;;;;5036844;28;20480;-72
2023/07/10 04:13:40;;;;;;;13.73;12.30;;;25.00;99.90;;;;;;5038172;28;21034;-72
2023/07/10 04:16:26;;;;;;;15.13;11.60;;;25.20;99.90;;;;;;5031826;28;20462;-73
2023/07/10 04:18:52;;;;;;;13.23;11.70;;;25.20;99.90;;;;;;5038146;28;20292;-73
2023/07/10 04:21:20;;;;;;;13.20;11.60;;;25.10;99.90;;;;;;5034391;28;20461;-73
2023/07/10 04:23:47;;;;;;;13.40;12.00;;;24.60;99.90;;;;;;5052683;28;20536;-73
2023/07/10 04:26:17;;;;;;;13.43;12.13;;;24.60;99.90;;;;;;5033623;28;20503;-73
2023/07/10 04:28:44;;;;;;;17.90;13.03;;;24.70;99.90;;;;;;5035929;28;20455;-74
2023/07/10 04:31:10;;;;;;;15.40;13.80;;;24.50;99.90;;;;;;5043523;28;20956;-73
2023/07/10 04:33:36;;;;;;;13.80;12.47;;;24.50;99.90;;;;;;5039694;28;20528;-74
2023/07/10 04:36:02;;;;;;;16.00;14.40;;;24.60;99.90;;;;;;5046655;28;20220;-73
2023/07/10 04:38:28;;;;;;;15.17;12.47;;;24.60;99.90;;;;;;5041082;28;20453;-73
2023/07/10 04:40:59;;;;;;;17.17;13.27;;;24.60;99.90;;;;;;5039207;28;20315;-73
2023/07/10 04:43:27;;;;;;;15.13;13.50;;;24.70;99.90;;;;;;5031587;28;20524;-73
2023/07/10 04:45:57;;;;;;;19.80;13.43;;;24.80;99.90;;;;;;5037410;28;20521;-73
2023/07/10 04:48:23;;;;;;;16.50;13.13;;;24.90;99.90;;;;;;5037913;28;20519;-74
2023/07/10 04:50:51;;;;;;;17.30;13.70;;;25.00;99.90;;;;;;5035683;28;20521;-74
2023/07/10 04:53:18;;;;;;;18.00;14.37;;;25.00;99.90;;;;;;5047838;28;20449;-73
2023/07/10 04:55:46;;;;;;;14.90;12.57;;;25.00;99.90;;;;;;5047862;28;20891;-74
2023/07/10 04:58:12;;;;;;;14.33;12.93;;;25.00;99.90;;;;;;5048514;28;20541;-73
2023/07/10 05:00:37;;;;;;;17.93;15.00;;;24.90;99.90;;;;;;5047939;28;20554;-73
2023/07/10 05:03:04;;;;;;;16.87;14.50;;;24.90;99.90;;;;;;5042118;28;20232;-73
2023/07/10 05:05:30;;;;;;;21.00;17.90;;;24.50;99.90;;;;;;5041850;28;20624;-73
2023/07/10 05:07:56;;;;;;;21.73;17.23;;;24.10;99.90;;;;;;5047135;28;20458;-71
2023/07/10 05:10:22;;;;;;;20.27;16.93;;;24.20;99.90;;;;;;5030231;28;20312;-75
2023/07/10 05:12:48;;;;;;;18.50;15.70;;;24.10;99.90;;;;;;5062878;28;20220;-72
2023/07/10 05:15:14;;;;;;;19.77;16.87;;;24.10;99.90;;;;;;5036720;28;20829;-73
2023/07/10 05:17:41;;;;;;;24.00;16.77;;;24.10;99.90;;;;;;5030866;28;20557;-73
2023/07/10 05:20:08;;;;;;;25.23;16.50;;;24.30;99.90;;;;;;5044742;28;20226;-73
2023/07/10 05:22:33;;;;;;;18.43;15.33;;;24.40;99.90;;;;;;5054192;28;20516;-73
2023/07/10 05:24:59;;;;;;;19.23;15.83;;;24.50;99.90;;;;;;5035512;28;20983;-71
2023/07/10 05:27:25;;;;;;;16.70;14.90;;;24.60;99.90;;;;;;5034874;28;20223;-72
2023/07/10 05:29:51;;;;;;;16.57;14.23;;;24.80;99.90;;;;;;5032860;28;20689;-73
2023/07/10 05:32:16;;;;;;;15.93;13.70;;;24.80;99.90;;;;;;5036140;28;20518;-73
2023/07/10 05:34:42;;;;;;;17.63;14.27;;;24.80;99.90;;;;;;5033387;28;20229;-74
2023/07/10 05:37:08;;;;;;;17.00;14.93;;;24.80;99.90;;;;;;5048727;28;20731;-73
2023/07/10 05:39:34;;;;;;;17.93;15.03;;;24.90;99.90;;;;;;5026703;28;20215;-74
2023/07/10 05:42:00;;;;;;;16.00;13.53;;;24.80;99.90;;;;;;5046470;28;20476;-73
2023/07/10 05:44:26;;;;;;;16.20;14.50;;;24.80;99.90;;;;;;5044605;28;20216;-73
2023/07/10 05:46:55;;;;;;;18.10;16.20;;;24.70;99.90;;;;;;5050355;28;20211;-73
2023/07/10 05:49:22;;;;;;;16.33;14.63;;;24.70;99.90;;;;;;5052407;28;20456;-73
2023/07/10 05:51:48;;;;;;;18.60;15.67;;;24.50;99.90;;;;;;5037920;28;20477;-73
2023/07/10 05:54:14;;;;;;;16.13;13.47;;;24.50;99.90;;;;;;5055109;28;20457;-73
2023/07/10 05:56:39;;;;;;;17.07;14.83;;;24.60;99.90;;;;;;5045720;28;20219;-73
2023/07/10 05:59:11;;;;;;;18.10;14.97;;;24.70;99.90;;;;;;5045812;28;20215;-72
2023/07/10 06:01:37;;;;;;;16.67;14.73;;;24.60;99.90;;;;;;5049465;28;20231;-73
2023/07/10 06:04:03;;;;;;;19.20;16.73;;;24.60;99.90;;;;;;5042672;28;20455;-73
2023/07/10 06:06:29;;;;;;;18.20;14.30;;;24.80;99.90;;;;;;5041780;28;20706;-73
2023/07/10 06:08:54;;;;;;;20.03;16.70;;;24.90;99.90;;;;;;5046429;28;20239;-73
2023/07/10 06:11:20;;;;;;;25.03;16.10;;;24.80;99.90;;;;;;5048490;28;20223;-73
2023/07/10 06:13:45;;;;;;;18.20;16.00;;;24.80;99.90;;;;;;5049816;28;20200;-74
2023/07/10 06:16:11;;;;;;;22.00;16.07;;;25.00;99.90;;;;;;5056316;28;20747;-73
2023/07/10 06:18:38;;;;;;;18.63;16.77;;;25.00;99.90;;;;;;5041713;28;20214;-74
2023/07/10 06:21:05;;;;;;;22.17;16.90;;;24.80;99.90;;;;;;5049708;28;20686;-73
2023/07/10 06:23:31;;;;;;;22.07;16.13;;;24.70;99.90;;;;;;5044767;28;20446;-74
2023/07/10 06:25:58;;;;;;;18.47;15.10;;;24.90;99.90;;;;;;5036421;28;20834;-73
2023/07/10 06:28:25;;;;;;;21.00;15.00;;;25.00;99.90;;;;;;5026414;28;20228;-73
2023/07/10 06:30:58;;;;;;;16.90;14.47;;;25.10;99.90;;;;;;5039881;28;20518;-73
2023/07/10 06:33:26;;;;;;;23.57;17.63;;;25.20;99.90;;;;;;5039124;28;20583;-72
2023/07/10 06:35:52;;;;;;;18.00;15.77;;;25.20;99.90;;;;;;5051407;28;20459;-73
2023/07/10 06:38:18;;;;;;;20.73;16.60;;;25.10;99.90;;;;;;5042349;28;20992;-73
2023/07/10 06:40:46;;;;;;;18.30;16.10;;;25.00;99.90;;;;;;5045715;28;20219;-73
2023/07/10 06:43:11;;;;;;;17.90;15.50;;;24.90;99.90;;;;;;5033323;28;20451;-74
2023/07/10 06:45:39;;;;;;;22.00;17.60;;;25.10;99.90;;;;;;5028308;28;20467;-73
2023/07/10 06:48:06;;;;;;;20.80;16.37;;;25.10;99.90;;;;;;5066176;28;20231;-73
2023/07/10 06:50:32;;;;;;;17.77;15.80;;;25.20;99.90;;;;;;5026341;28;20451;-73
2023/07/10 06:52:57;;;;;;;19.70;15.60;;;25.00;99.90;;;;;;5048098;28;20466;-73
2023/07/10 06:55:23;;;;;;;17.30;15.37;;;25.00;99.90;;;;;;5032678;28;20224;-73
2023/07/10 06:57:49;;;;;;;16.47;14.77;;;25.10;99.90;;;;;;5037220;28;20216;-73
2023/07/10 07:00:16;;;;;;;16.93;14.73;;;25.10;99.90;;;;;;5052837;28;20721;-73
2023/07/10 07:02:42;;;;;;;17.20;14.60;;;25.00;99.90;;;;;;5036096;28;20229;-73
2023/07/10 07:05:08;;;;;;;16.83;15.13;;;24.90;99.90;;;;;;5035135;28;20478;-73
2023/07/10 07:07:36;;;;;;;17.10;14.83;;;25.00;99.90;;;;;;5030464;28;20466;-73
2023/07/10 07:10:02;;;;;;;18.93;15.80;;;25.20;99.90;;;;;;5040656;28;20820;-73
2023/07/10 07:12:27;;;;;;;17.13;15.33;;;25.20;99.90;;;;;;5034233;28;20454;-73
2023/07/10 07:14:53;;;;;;;16.70;14.93;;;25.30;99.90;;;;;;5033334;28;20467;-73
2023/07/10 07:17:19;;;;;;;16.57;14.97;;;25.40;99.90;;;;;;5046014;28;20299;-74
2023/07/10 07:19:46;;;;;;;17.60;14.97;;;25.50;99.90;;;;;;5038952;28;20255;-73
2023/07/10 07:22:12;;;;;;;15.23;13.70;;;25.60;99.90;;;;;;5021814;28;20278;-73
2023/07/10 07:24:38;;;;;;;16.37;14.60;;;25.60;99.90;;;;;;5036891;28;20459;-73
2023/07/10 07:27:04;;;;;;;15.47;13.00;;;25.70;99.90;;;;;;5044353;28;20512;-74
2023/07/10 07:29:30;;;;;;;13.43;12.13;;;25.80;99.90;;;;;;5044368;28;20288;-72
2023/07/10 07:31:55;;;;;;;16.10;12.13;;;25.80;99.90;;;;;;5045242;28;21024;-73
2023/07/10 07:34:21;;;;;;;14.10;12.70;;;25.90;99.90;;;;;;5035383;28;20699;-73
2023/07/10 07:36:53;;;;;;;16.33;12.60;;;25.90;99.90;;;;;;5036682;28;20702;-74
2023/07/10 07:39:27;;;;;;;13.57;12.20;;;26.00;99.90;;;;;;5047507;28;20227;-74
2023/07/10 07:41:54;;;;;;;15.73;12.83;;;26.00;99.90;;;;;;5036182;28;20481;-74
2023/07/10 07:44:19;;;;;;;14.53;13.07;;;26.10;99.90;;;;;;5040652;28;20469;-74
2023/07/10 07:46:45;;;;;;;14.33;12.83;;;26.10;99.90;;;;;;5051453;28;20671;-74
2023/07/10 07:49:10;;;;;;;14.97;13.40;;;26.10;99.90;;;;;;5048618;28;20290;-74
2023/07/10 07:51:37;;;;;;;14.83;13.33;;;26.00;99.90;;;;;;5048081;28;20220;-74
2023/07/10 07:54:09;;;;;;;14.27;12.83;;;26.10;99.90;;;;;;5056590;28;20215;-73
2023/07/10 07:56:34;;;;;;;18.70;13.20;;;26.20;99.90;;;;;;5035099;28;20482;-74
2023/07/10 07:59:00;;;;;;;14.03;11.70;;;26.30;99.90;;;;;;5049778;28;21047;-74
2023/07/10 08:01:26;;;;;;;13.13;11.77;;;26.30;99.90;;;;;;5048459;28;20289;-74
2023/07/10 08:03:52;;;;;;;11.93;10.93;;;26.40;99.90;;;;;;5051152;28;20212;-73
2023/07/10 08:06:18;;;;;;;13.77;12.27;;;26.50;99.90;;;;;;5059183;28;20446;-73
2023/07/10 08:08:44;;;;;;;14.30;12.90;;;26.60;99.90;;;;;;5043115;28;20332;-73
2023/07/10 08:11:10;;;;;;;14.23;12.33;;;26.60;99.90;;;;;;5046387;28;20561;-73
2023/07/10 08:13:36;;;;;;;14.90;13.40;;;26.60;99.90;;;;;;5047231;28;20222;-72
2023/07/10 08:16:02;;;;;;;14.87;13.37;;;26.70;99.90;;;;;;5049487;28;20303;-74
2023/07/10 08:18:27;;;;;;;14.07;12.70;;;26.80;99.90;;;;;;5047007;28;20227;-73
2023/07/10 08:21:06;;;;;;;13.77;12.33;;;26.90;99.90;;;;;;5042563;28;20286;-74
2023/07/10 08:23:32;;;;;;;13.50;12.20;;;27.00;99.90;;;;;;5043765;28;20297;-74
2023/07/10 08:25:59;;;;;;;13.27;11.97;;;27.00;99.90;;;;;;5034714;28;20224;-74
2023/07/10 08:28:24;;;;;;;13.17;11.87;;;27.10;99.90;;;;;;5042827;28;20204;-74
2023/07/10 08:30:50;;;;;;;14.40;12.87;;;27.20;99.90;;;;;;5042010;28;20462;-74
2023/07/10 08:33:15;;;;;;;13.17;11.97;;;27.20;99.90;;;;;;5052014;28;20724;-74
2023/07/10 08:35:41;;;;;;;12.83;11.67;;;27.30;99.90;;;;;;5045507;28;20228;-74
2023/07/10 08:38:07;;;;;;;13.67;12.37;;;27.30;99.90;;;;;;5038710;28;20685;-74
2023/07/10 08:40:35;;;;;;;13.00;11.80;;;27.30;99.90;;;;;;5037588;28;20638;-73
2023/07/10 08:43:18;;;;;;;12.55;11.25;;;27.40;99.90;;;;;;5042133;28;20228;-74
2023/07/10 08:45:46;;;;;;;14.10;11.07;;;27.50;99.90;;;;;;5048819;28;20228;-74
2023/07/10 08:48:17;;;;;;;13.30;11.50;;;27.50;99.90;;;;;;5031909;28;20701;-74
2023/07/10 08:50:47;;;;;;;14.70;12.48;;;27.50;99.90;;;;;;5030949;28;20311;-74
2023/07/10 08:53:16;;;;;;;12.48;11.27;;;27.60;99.90;;;;;;5024525;28;20230;-74
2023/07/10 08:55:41;;;;;;;13.60;12.13;;;27.70;99.90;;;;;;5043467;28;20318;-74
2023/07/10 08:58:17;;;;;;;14.32;12.23;;;27.60;99.90;;;;;;5037724;28;20302;-74
2023/07/10 09:00:46;;;;;;;11.90;10.68;;;27.60;99.90;;;;;;5032033;28;20223;-74
2023/07/10 09:03:34;;;;;;;12.18;10.98;;;27.70;99.90;;;;;;5050779;28;20255;-74
2023/07/10 09:06:03;;;;;;;13.45;12.18;;;27.80;99.90;;;;;;5048642;28;20225;-74
2023/07/10 09:08:31;;;;;;;12.02;10.82;;;27.70;99.90;;;;;;5037341;28;20220;-73
2023/07/10 09:11:02;;;;;;;12.80;11.48;;;27.70;99.90;;;;;;5042983;28;20228;-74
2023/07/10 09:13:52;;;;;;;12.15;11.05;;;27.90;99.90;;;;;;5048738;28;20226;-74
2023/07/10 09:16:20;;;;;;;12.32;11.13;;;28.00;99.90;;;;;;5043640;28;20224;-74
2023/07/10 09:18:58;;;;;;;11.30;10.30;;;28.10;99.90;;;;;;5049236;28;20221;-74
2023/07/10 09:21:29;;;;;;;11.63;10.52;;;28.10;99.90;;;;;;5039925;28;20234;-74
2023/07/10 09:23:55;;;;;;;12.35;11.10;;;28.20;99.90;;;;;;5046202;28;20309;-74
2023/07/10 09:26:27;;;;;;;11.82;10.73;;;28.30;99.90;;;;;;5039476;28;20248;-74
2023/07/10 09:29:10;;;;;;;12.10;10.90;;;28.40;99.90;;;;;;5032803;28;20698;-74
2023/07/10 09:32:13;;;;;;;13.35;11.30;;;28.40;99.90;;;;;;5020344;28;20216;-74
2023/07/10 09:34:50;;;;;;;10.85;9.77;;;28.50;99.90;;;;;;5042596;28;20219;-73
2023/07/10 09:37:21;;;;;;;12.20;11.10;;;28.60;99.90;;;;;;5043218;28;20227;-74
2023/07/10 09:39:47;;;;;;;10.55;9.75;;;28.60;99.90;;;;;;5044334;28;20220;-74
2023/07/10 09:42:19;;;;;;;11.05;10.02;;;28.80;99.90;;;;;;5053081;28;20231;-74
2023/07/10 09:44:55;;;;;;;11.25;10.32;;;28.70;99.90;;;;;;5045126;28;20682;-74
2023/07/10 09:47:22;;;;;;;12.52;11.13;;;28.70;99.90;;;;;;5043892;28;20273;-74
2023/07/10 09:49:56;;;;;;;10.32;9.43;;;29.00;99.90;;;;;;5041875;28;20231;-74
2023/07/10 09:52:24;;;;;;;10.85;9.95;;;29.20;99.90;;;;;;5047896;28;20223;-74
2023/07/10 09:55:11;;;;;;;10.13;9.32;;;29.20;99.90;;;;;;5027429;28;20243;-74
2023/07/10 09:57:57;;;;;;;9.02;8.30;;;28.80;99.90;;;;;;5041119;28;20600;-74
2023/07/10 10:00:24;;;;;;;9.30;8.50;;;29.00;99.90;;;;;;5047818;28;20222;-74
2023/07/10 10:03:09;;;;;;;9.00;8.18;;;29.30;99.90;;;;;;5031772;28;20244;-74
2023/07/10 10:05:40;;;;;;;9.15;8.27;;;29.40;99.70;;;;;;5041021;28;20311;-74
2023/07/10 10:08:18;;;;;;;9.50;8.50;;;29.60;98.80;;;;;;5046876;28;20249;-74
2023/07/10 10:10:43;;;;;;;9.63;8.82;;;29.60;98.80;;;;;;5057685;28;20224;-74
2023/07/10 10:13:20;;;;;;;10.27;9.25;;;29.60;99.00;;;;;;5049421;28;20271;-74
2023/07/10 10:16:03;;;;;;;9.88;8.98;;;29.70;99.10;;;;;;5032329;28;20226;-74
2023/07/10 10:18:35;;;;;;;8.85;8.15;;;29.70;98.80;;;;;;5026892;28;20239;-73
2023/07/10 10:21:02;;;;;;;9.38;8.57;;;29.80;98.70;;;;;;5039592;28;20209;-74
2023/07/10 10:23:31;;;;;;;9.88;9.00;;;29.90;98.20;;;;;;5028003;28;20298;-74
2023/07/10 10:26:20;;;;;;;9.40;8.50;;;29.70;98.50;;;;;;5025262;28;20220;-74
2023/07/10 10:29:09;;;;;;;9.73;8.98;;;29.90;98.30;;;;;;4990375;28;20299;-74
2023/07/10 10:31:40;;;;;;;9.63;7.30;;;30.10;97.40;;;;;;5025871;28;20216;-73
2023/07/10 10:34:28;;;;;;;9.20;8.30;;;30.10;97.50;;;;;;5040468;28;20229;-74
2023/07/10 10:37:29;;;;;;;10.52;8.30;;;30.30;96.60;;;;;;5046335;28;20255;-74
2023/07/10 10:39:59;;;;;;;9.15;8.35;;;30.40;96.00;;;;;;4998609;28;20316;-74
2023/07/10 10:42:49;;;;;;;9.43;7.10;;;30.40;96.10;;;;;;5037162;28;20238;-74
2023/07/10 10:45:38;;;;;;;8.43;7.47;;;30.40;96.00;;;;;;5047643;28;20225;-74
2023/07/10 10:48:27;;;;;;;8.32;7.53;;;30.60;95.90;;;;;;5037684;28;20228;-74
2023/07/10 10:51:12;;;;;;;8.05;7.38;;;30.60;95.80;;;;;;5041290;28;20220;-74
2023/07/10 10:53:50;;;;;;;7.90;6.32;;;30.70;95.60;;;;;;5052502;28;20298;-73
2023/07/10 10:56:24;;;;;;;7.03;6.43;;;30.70;95.00;;;;;;5032602;28;20253;-74
2023/07/10 10:59:18;;;;;;;7.65;6.88;;;30.70;94.80;;;;;;5037443;28;20809;-74
2023/07/10 11:02:21;;;;;;;8.00;7.18;;;30.80;95.00;;;;;;5050226;28;20236;-75
2023/07/10 11:04:54;;;;;;;6.70;6.20;;;30.90;94.10;;;;;;5040037;28;20251;-74
2023/07/10 11:07:22;;;;;;;7.13;6.53;;;31.10;94.00;;;;;;5030377;28;20216;-74
2023/07/10 11:09:48;;;;;;;8.43;7.53;;;31.00;94.10;;;;;;5044449;28;20217;-74
2023/07/10 11:12:21;;;;;;;7.88;7.13;;;30.70;93.60;;;;;;5042123;28;20224;-74
2023/07/10 11:14:50;;;;;;;7.25;6.65;;;30.80;93.30;;;;;;5034307;28;20255;-74
2023/07/10 11:17:16;;;;;;;7.72;6.47;;;30.60;93.20;;;;;;5044218;28;20217;-74
2023/07/10 11:19:43;;;;;;;7.57;6.88;;;30.60;92.90;;;;;;5035936;28;20230;-73
2023/07/10 11:22:11;;;;;;;7.82;7.22;;;30.60;93.00;;;;;;5052788;28;20251;-74
2023/07/10 11:24:37;;;;;;;7.05;6.55;;;30.80;92.60;;;;;;5032133;28;20228;-74
2023/07/10 11:27:31;;;;;;;8.10;7.32;;;30.90;92.60;;;;;;5040910;28;20616;-74
2023/07/10 11:30:08;;;;;;;6.90;6.40;;;31.10;92.40;;;;;;5060492;28;20588;-74
2023/07/10 11:32:56;;;;;;;7.35;6.60;;;31.40;91.40;;;;;;5032019;28;20259;-74
2023/07/10 11:35:23;;;;;;;7.10;6.55;;;31.50;90.80;;;;;;5036163;28;20231;-74
2023/07/10 11:37:49;;;;;;;6.32;5.72;;;31.60;89.80;;;;;;5044408;28;20234;-74
2023/07/10 11:40:26;;;;;;;5.82;5.35;;;31.80;89.50;;;;;;5033428;28;20683;-74
2023/07/10 11:43:00;;;;;;;6.00;5.60;;;31.90;88.70;;;;;;5059538;28;20290;-74
2023/07/10 11:45:31;;;;;;;5.70;5.20;;;31.80;89.20;;;;;;5045742;28;20240;-72
2023/07/10 11:47:57;;;;;;;5.80;5.32;;;31.90;88.80;;;;;;5045702;28;20211;-74
2023/07/10 11:50:23;;;;;;;6.07;5.60;;;31.60;88.30;;;;;;5039475;28;20265;-74
2023/07/10 11:53:22;;;;;;;10.68;5.78;;;31.70;89.10;;;;;;5039441;28;20265;-74
2023/07/10 11:55:54;;;;;;;7.32;6.68;;;32.00;87.40;;;;;;5030057;28;20645;-73
2023/07/10 11:58:26;;;;;;;7.00;6.30;;;32.10;87.70;;;;;;5048129;28;20216;-74
2023/07/10 12:01:17;;;;;;;6.75;6.13;;;32.10;87.20;;;;;;5031514;28;20846;-74
2023/07/10 12:03:43;;;;;;;5.45;5.05;;;32.30;85.00;;;;;;5050307;28;20246;-74
2023/07/10 12:06:19;;;;;;;5.30;4.90;;;32.60;79.00;;;;;;5032363;28;20682;-75
2023/07/10 12:08:46;;;;;;;5.55;5.00;;;32.70;79.70;;;;;;5033902;28;20273;-74
2023/07/10 12:11:27;;;;;;;5.97;5.38;;;32.70;79.40;;;;;;5043514;28;20223;-74
2023/07/10 12:13:53;;;;;;;5.10;4.70;;;32.50;81.10;;;;;;5039471;28;20262;-75
2023/07/10 12:16:18;;;;;;;5.65;4.85;;;32.60;81.70;;;;;;5034922;28;20598;-75
2023/07/10 12:18:44;;;;;;;5.65;5.25;;;32.80;77.00;;;;;;5028196;28;20208;-74
2023/07/10 12:21:14;;;;;;;5.50;5.10;;;32.80;76.30;;;;;;5063512;28;20212;-75
2023/07/10 12:23:52;;;;;;;6.45;5.95;;;32.60;75.90;;;;;;5036900;28;20221;-75
2023/07/10 12:26:17;;;;;;;6.07;5.57;;;32.50;78.00;;;;;;5034546;28;20216;-75
2023/07/10 12:28:43;;;;;;;8.50;5.53;;;32.50;78.90;;;;;;5032098;28;20593;-75
2023/07/10 12:31:13;;;;;;;6.72;6.22;;;32.50;79.90;;;;;;5035751;28;20213;-74
2023/07/10 12:33:42;;;;;;;6.50;5.90;;;32.40;80.50;;;;;;5038361;28;20228;-73
2023/07/10 12:36:17;;;;;;;7.07;6.38;;;31.90;81.90;;;;;;5038754;28;20216;-75
2023/07/10 12:38:44;;;;;;;7.05;6.47;;;31.70;82.60;;;;;;5021307;28;20219;-75
2023/07/10 12:41:10;;;;;;;7.38;6.78;;;31.90;82.60;;;;;;5044331;28;20211;-74
2023/07/10 12:43:35;;;;;;;7.10;6.50;;;31.80;81.80;;;;;;5047154;28;20586;-75
2023/07/10 12:46:17;;;;;;;7.05;6.43;;;31.40;83.40;;;;;;5031586;28;20693;-74